sensor_id;sensor_type;location;lat;lon;timestamp;P1;durP1;ratioP1;P2;durP2;ratioP2
15340;SDS011;7770;52.158;5.372;2023-09-08T00:01:44;19.80;;;17.83;;
15340;SDS011;7770;52.158;5.372;2023-09-08T00:04:29;20.80;;;18.83;;
15340;SDS011;7770;52.158;5.372;2023-09-08T00:07:15;20.67;;;18.57;;
15340;SDS011;7770;52.158;5.372;2023-09-08T00:10:02;20.60;;;18.80;;
15340;SDS011;7770;52.158;5.372;2023-09-08T00:12:48;21.03;;;19.13;;
15340;SDS011;7770;52.158;5.372;2023-09-08T00:15:34;22.00;;;19.93;;
15340;SDS011;7770;52.158;5.372;2023-09-08T00:18:20;21.80;;;19.93;;
15340;SDS011;7770;52.158;5.372;2023-09-08T00:21:06;21.33;;;19.53;;
15340;SDS011;7770;52.158;5.372;2023-09-08T00:23:52;22.83;;;20.53;;
15340;SDS011;7770;52.158;5.372;2023-09-08T00:26:39;22.03;;;20.17;;
15340;SDS011;7770;52.158;5.372;2023-09-08T00:29:25;21.97;;;20.03;;
15340;SDS011;7770;52.158;5.372;2023-09-08T00:32:11;21.93;;;20.00;;
15340;SDS011;7770;52.158;5.372;2023-09-08T00:34:57;22.47;;;20.60;;
15340;SDS011;7770;52.158;5.372;2023-09-08T00:37:43;23.07;;;20.87;;
15340;SDS011;7770;52.158;5.372;2023-09-08T00:40:29;22.53;;;20.73;;
15340;SDS011;7770;52.158;5.372;2023-09-08T00:43:16;23.40;;;21.30;;
15340;SDS011;7770;52.158;5.372;2023-09-08T00:46:03;23.23;;;21.03;;
15340;SDS011;7770;52.158;5.372;2023-09-08T00:48:49;23.30;;;21.40;;
15340;SDS011;7770;52.158;5.372;2023-09-08T00:51:35;24.27;;;22.07;;
15340;SDS011;7770;52.158;5.372;2023-09-08T00:54:23;23.83;;;21.73;;
15340;SDS011;7770;52.158;5.372;2023-09-08T00:57:09;23.07;;;20.93;;
15340;SDS011;7770;52.158;5.372;2023-09-08T00:59:55;24.60;;;22.33;;
15340;SDS011;7770;52.158;5.372;2023-09-08T01:02:41;24.17;;;22.07;;
15340;SDS011;7770;52.158;5.372;2023-09-08T01:05:30;25.37;;;23.13;;
15340;SDS011;7770;52.158;5.372;2023-09-08T01:08:16;25.40;;;23.10;;
15340;SDS011;7770;52.158;5.372;2023-09-08T01:11:03;25.53;;;23.30;;
15340;SDS011;7770;52.158;5.372;2023-09-08T01:13:49;26.03;;;23.53;;
15340;SDS011;7770;52.158;5.372;2023-09-08T01:16:35;25.30;;;22.97;;
15340;SDS011;7770;52.158;5.372;2023-09-08T01:19:22;25.63;;;23.43;;
15340;SDS011;7770;52.158;5.372;2023-09-08T01:25:12;25.43;;;23.27;;
15340;SDS011;7770;52.158;5.372;2023-09-08T01:28:12;26.30;;;23.87;;
15340;SDS011;7770;52.158;5.372;2023-09-08T01:30:58;26.77;;;24.10;;
15340;SDS011;7770;52.158;5.372;2023-09-08T01:33:45;25.87;;;23.67;;
15340;SDS011;7770;52.158;5.372;2023-09-08T01:36:31;26.43;;;24.00;;
15340;SDS011;7770;52.158;5.372;2023-09-08T01:39:17;25.33;;;23.20;;
15340;SDS011;7770;52.158;5.372;2023-09-08T01:42:03;25.07;;;22.87;;
15340;SDS011;7770;52.158;5.372;2023-09-08T01:44:49;25.47;;;23.27;;
15340;SDS011;7770;52.158;5.372;2023-09-08T01:47:36;26.93;;;24.57;;
15340;SDS011;7770;52.158;5.372;2023-09-08T01:50:22;25.53;;;23.23;;
15340;SDS011;7770;52.158;5.372;2023-09-08T01:53:10;26.57;;;24.30;;
15340;SDS011;7770;52.158;5.372;2023-09-08T01:55:56;26.60;;;24.40;;
15340;SDS011;7770;52.158;5.372;2023-09-08T01:58:42;25.80;;;23.40;;
15340;SDS011;7770;52.158;5.372;2023-09-08T02:01:28;25.57;;;23.47;;
15340;SDS011;7770;52.158;5.372;2023-09-08T02:04:14;26.17;;;23.97;;
15340;SDS011;7770;52.158;5.372;2023-09-08T02:07:00;25.70;;;23.57;;
15340;SDS011;7770;52.158;5.372;2023-09-08T02:09:46;26.37;;;23.97;;
15340;SDS011;7770;52.158;5.372;2023-09-08T02:12:32;26.07;;;23.70;;
15340;SDS011;7770;52.158;5.372;2023-09-08T02:15:18;26.13;;;23.93;;
15340;SDS011;7770;52.158;5.372;2023-09-08T02:18:06;26.20;;;24.00;;
15340;SDS011;7770;52.158;5.372;2023-09-08T02:20:52;27.13;;;24.63;;
15340;SDS011;7770;52.158;5.372;2023-09-08T02:23:38;26.60;;;24.30;;
15340;SDS011;7770;52.158;5.372;2023-09-08T02:26:24;26.83;;;24.53;;
15340;SDS011;7770;52.158;5.372;2023-09-08T02:29:12;26.70;;;24.40;;
15340;SDS011;7770;52.158;5.372;2023-09-08T02:31:58;26.17;;;23.80;;
15340;SDS011;7770;52.158;5.372;2023-09-08T02:34:44;26.67;;;24.37;;
15340;SDS011;7770;52.158;5.372;2023-09-08T02:37:30;27.60;;;25.20;;
15340;SDS011;7770;52.158;5.372;2023-09-08T02:40:16;27.57;;;25.07;;
15340;SDS011;7770;52.158;5.372;2023-09-08T02:43:03;28.30;;;25.80;;
15340;SDS011;7770;52.158;5.372;2023-09-08T02:45:49;28.90;;;26.20;;
15340;SDS011;7770;52.158;5.372;2023-09-08T02:48:35;28.83;;;26.23;;
15340;SDS011;7770;52.158;5.372;2023-09-08T02:51:21;28.67;;;26.17;;
15340;SDS011;7770;52.158;5.372;2023-09-08T02:54:07;30.20;;;27.30;;
15340;SDS011;7770;52.158;5.372;2023-09-08T02:56:53;29.53;;;26.80;;
15340;SDS011;7770;52.158;5.372;2023-09-08T02:59:39;29.00;;;26.30;;
15340;SDS011;7770;52.158;5.372;2023-09-08T03:02:26;29.00;;;26.57;;
15340;SDS011;7770;52.158;5.372;2023-09-08T03:05:12;28.33;;;25.93;;
15340;SDS011;7770;52.158;5.372;2023-09-08T03:07:58;28.37;;;26.07;;
15340;SDS011;7770;52.158;5.372;2023-09-08T03:10:44;29.93;;;27.27;;
15340;SDS011;7770;52.158;5.372;2023-09-08T03:13:30;29.67;;;26.93;;
15340;SDS011;7770;52.158;5.372;2023-09-08T03:16:17;28.97;;;26.37;;
15340;SDS011;7770;52.158;5.372;2023-09-08T03:19:03;27.53;;;25.07;;
15340;SDS011;7770;52.158;5.372;2023-09-08T03:21:49;29.03;;;26.47;;
15340;SDS011;7770;52.158;5.372;2023-09-08T03:24:35;29.50;;;27.00;;
15340;SDS011;7770;52.158;5.372;2023-09-08T03:27:21;30.23;;;27.30;;
15340;SDS011;7770;52.158;5.372;2023-09-08T03:30:07;28.93;;;26.20;;
15340;SDS011;7770;52.158;5.372;2023-09-08T03:32:53;28.77;;;26.03;;
15340;SDS011;7770;52.158;5.372;2023-09-08T03:35:39;28.97;;;26.33;;
15340;SDS011;7770;52.158;5.372;2023-09-08T03:38:25;29.00;;;26.20;;
15340;SDS011;7770;52.158;5.372;2023-09-08T03:41:11;29.73;;;27.13;;
15340;SDS011;7770;52.158;5.372;2023-09-08T03:43:57;31.03;;;26.63;;
15340;SDS011;7770;52.158;5.372;2023-09-08T03:46:43;28.97;;;26.27;;
15340;SDS011;7770;52.158;5.372;2023-09-08T03:49:30;30.63;;;27.87;;
15340;SDS011;7770;52.158;5.372;2023-09-08T03:52:16;29.00;;;26.40;;
15340;SDS011;7770;52.158;5.372;2023-09-08T03:55:02;30.57;;;27.47;;
15340;SDS011;7770;52.158;5.372;2023-09-08T03:57:49;29.37;;;26.77;;
15340;SDS011;7770;52.158;5.372;2023-09-08T04:00:35;29.93;;;27.20;;
15340;SDS011;7770;52.158;5.372;2023-09-08T04:03:22;30.17;;;27.57;;
15340;SDS011;7770;52.158;5.372;2023-09-08T04:06:08;30.00;;;27.30;;
15340;SDS011;7770;52.158;5.372;2023-09-08T04:08:54;29.70;;;27.13;;
15340;SDS011;7770;52.158;5.372;2023-09-08T04:11:41;30.73;;;27.93;;
15340;SDS011;7770;52.158;5.372;2023-09-08T04:14:27;31.17;;;28.47;;
15340;SDS011;7770;52.158;5.372;2023-09-08T04:17:14;30.33;;;27.73;;
15340;SDS011;7770;52.158;5.372;2023-09-08T04:20:00;29.37;;;26.57;;
15340;SDS011;7770;52.158;5.372;2023-09-08T04:22:50;30.23;;;27.33;;
15340;SDS011;7770;52.158;5.372;2023-09-08T04:25:36;31.73;;;28.77;;
15340;SDS011;7770;52.158;5.372;2023-09-08T04:28:22;31.53;;;28.53;;
15340;SDS011;7770;52.158;5.372;2023-09-08T04:31:08;31.47;;;28.37;;
15340;SDS011;7770;52.158;5.372;2023-09-08T04:33:54;31.10;;;28.17;;
15340;SDS011;7770;52.158;5.372;2023-09-08T04:36:40;30.80;;;28.20;;
15340;SDS011;7770;52.158;5.372;2023-09-08T04:39:26;32.47;;;29.37;;
15340;SDS011;7770;52.158;5.372;2023-09-08T04:42:12;32.13;;;29.23;;
15340;SDS011;7770;52.158;5.372;2023-09-08T04:44:58;32.77;;;29.83;;
15340;SDS011;7770;52.158;5.372;2023-09-08T04:47:44;31.30;;;28.40;;
15340;SDS011;7770;52.158;5.372;2023-09-08T04:50:32;30.20;;;27.43;;
15340;SDS011;7770;52.158;5.372;2023-09-08T04:53:18;30.90;;;28.23;;
15340;SDS011;7770;52.158;5.372;2023-09-08T04:56:04;32.03;;;29.10;;
15340;SDS011;7770;52.158;5.372;2023-09-08T04:58:50;31.20;;;28.33;;
15340;SDS011;7770;52.158;5.372;2023-09-08T05:01:36;31.53;;;28.63;;
15340;SDS011;7770;52.158;5.372;2023-09-08T05:04:23;31.30;;;28.63;;
15340;SDS011;7770;52.158;5.372;2023-09-08T05:07:09;30.77;;;28.00;;
15340;SDS011;7770;52.158;5.372;2023-09-08T05:09:55;31.33;;;28.33;;
15340;SDS011;7770;52.158;5.372;2023-09-08T05:12:41;31.80;;;28.73;;
15340;SDS011;7770;52.158;5.372;2023-09-08T05:15:28;31.33;;;28.63;;
15340;SDS011;7770;52.158;5.372;2023-09-08T05:18:16;30.97;;;27.97;;
15340;SDS011;7770;52.158;5.372;2023-09-08T05:21:02;31.00;;;27.97;;
15340;SDS011;7770;52.158;5.372;2023-09-08T05:23:48;30.67;;;27.77;;
15340;SDS011;7770;52.158;5.372;2023-09-08T05:26:35;30.77;;;27.97;;
15340;SDS011;7770;52.158;5.372;2023-09-08T05:29:23;30.37;;;27.77;;
15340;SDS011;7770;52.158;5.372;2023-09-08T05:32:09;29.37;;;26.90;;
15340;SDS011;7770;52.158;5.372;2023-09-08T05:34:55;30.50;;;27.60;;
15340;SDS011;7770;52.158;5.372;2023-09-08T05:37:41;29.80;;;27.20;;
15340;SDS011;7770;52.158;5.372;2023-09-08T05:40:27;29.83;;;27.20;;
15340;SDS011;7770;52.158;5.372;2023-09-08T05:43:13;30.03;;;27.23;;
15340;SDS011;7770;52.158;5.372;2023-09-08T05:45:59;29.43;;;26.73;;
15340;SDS011;7770;52.158;5.372;2023-09-08T05:48:45;30.23;;;27.30;;
15340;SDS011;7770;52.158;5.372;2023-09-08T05:51:32;31.17;;;28.10;;
15340;SDS011;7770;52.158;5.372;2023-09-08T05:54:18;28.53;;;25.97;;
15340;SDS011;7770;52.158;5.372;2023-09-08T05:57:05;29.20;;;26.50;;
15340;SDS011;7770;52.158;5.372;2023-09-08T05:59:51;28.93;;;26.33;;
15340;SDS011;7770;52.158;5.372;2023-09-08T06:02:37;26.47;;;23.77;;
15340;SDS011;7770;52.158;5.372;2023-09-08T06:05:23;28.43;;;25.83;;
15340;SDS011;7770;52.158;5.372;2023-09-08T06:08:09;28.50;;;25.93;;
15340;SDS011;7770;52.158;5.372;2023-09-08T06:10:55;28.60;;;25.83;;
15340;SDS011;7770;52.158;5.372;2023-09-08T06:13:41;27.73;;;25.07;;
15340;SDS011;7770;52.158;5.372;2023-09-08T06:16:28;28.23;;;25.93;;
15340;SDS011;7770;52.158;5.372;2023-09-08T06:19:14;28.90;;;26.07;;
15340;SDS011;7770;52.158;5.372;2023-09-08T06:22:00;29.37;;;26.53;;
15340;SDS011;7770;52.158;5.372;2023-09-08T06:24:46;28.03;;;25.33;;
15340;SDS011;7770;52.158;5.372;2023-09-08T06:27:32;27.57;;;25.00;;
15340;SDS011;7770;52.158;5.372;2023-09-08T06:30:18;26.63;;;24.23;;
15340;SDS011;7770;52.158;5.372;2023-09-08T06:33:04;28.03;;;25.47;;
15340;SDS011;7770;52.158;5.372;2023-09-08T06:35:50;28.13;;;25.43;;
15340;SDS011;7770;52.158;5.372;2023-09-08T06:38:36;28.13;;;25.53;;
15340;SDS011;7770;52.158;5.372;2023-09-08T06:41:22;28.53;;;25.97;;
15340;SDS011;7770;52.158;5.372;2023-09-08T06:44:09;27.17;;;24.87;;
15340;SDS011;7770;52.158;5.372;2023-09-08T06:46:55;27.40;;;24.33;;
15340;SDS011;7770;52.158;5.372;2023-09-08T06:49:41;27.27;;;24.87;;
15340;SDS011;7770;52.158;5.372;2023-09-08T06:52:27;25.97;;;23.77;;
15340;SDS011;7770;52.158;5.372;2023-09-08T06:55:13;25.87;;;23.50;;
15340;SDS011;7770;52.158;5.372;2023-09-08T06:58:01;25.30;;;22.87;;
15340;SDS011;7770;52.158;5.372;2023-09-08T07:00:47;24.53;;;22.37;;
15340;SDS011;7770;52.158;5.372;2023-09-08T07:03:35;25.30;;;23.03;;
15340;SDS011;7770;52.158;5.372;2023-09-08T07:06:22;24.33;;;22.13;;
15340;SDS011;7770;52.158;5.372;2023-09-08T07:09:08;25.33;;;22.40;;
15340;SDS011;7770;52.158;5.372;2023-09-08T07:11:54;24.60;;;22.47;;
15340;SDS011;7770;52.158;5.372;2023-09-08T07:14:40;23.83;;;21.53;;
15340;SDS011;7770;52.158;5.372;2023-09-08T07:17:26;23.83;;;21.73;;
15340;SDS011;7770;52.158;5.372;2023-09-08T07:20:12;23.63;;;21.27;;
15340;SDS011;7770;52.158;5.372;2023-09-08T07:22:58;23.23;;;21.27;;
15340;SDS011;7770;52.158;5.372;2023-09-08T07:25:47;21.70;;;19.70;;
15340;SDS011;7770;52.158;5.372;2023-09-08T07:28:34;21.50;;;19.43;;
15340;SDS011;7770;52.158;5.372;2023-09-08T07:31:20;20.10;;;18.47;;
15340;SDS011;7770;52.158;5.372;2023-09-08T07:34:06;21.50;;;19.60;;
15340;SDS011;7770;52.158;5.372;2023-09-08T07:36:52;20.80;;;18.90;;
15340;SDS011;7770;52.158;5.372;2023-09-08T07:39:38;21.43;;;19.20;;
15340;SDS011;7770;52.158;5.372;2023-09-08T07:42:24;21.23;;;19.10;;
15340;SDS011;7770;52.158;5.372;2023-09-08T07:45:10;19.17;;;17.37;;
15340;SDS011;7770;52.158;5.372;2023-09-08T07:47:56;20.60;;;18.70;;
15340;SDS011;7770;52.158;5.372;2023-09-08T07:50:42;19.37;;;17.77;;
15340;SDS011;7770;52.158;5.372;2023-09-08T07:53:29;20.23;;;18.57;;
15340;SDS011;7770;52.158;5.372;2023-09-08T07:56:15;20.27;;;18.50;;
15340;SDS011;7770;52.158;5.372;2023-09-08T07:59:01;18.87;;;17.10;;
15340;SDS011;7770;52.158;5.372;2023-09-08T08:01:47;18.37;;;16.70;;
15340;SDS011;7770;52.158;5.372;2023-09-08T08:04:33;18.53;;;16.87;;
15340;SDS011;7770;52.158;5.372;2023-09-08T08:07:19;18.67;;;17.17;;
15340;SDS011;7770;52.158;5.372;2023-09-08T08:10:06;18.47;;;16.87;;
15340;SDS011;7770;52.158;5.372;2023-09-08T08:12:52;19.73;;;18.07;;
15340;SDS011;7770;52.158;5.372;2023-09-08T08:15:39;18.75;;;17.05;;
15340;SDS011;7770;52.158;5.372;2023-09-08T08:18:27;18.02;;;16.52;;
15340;SDS011;7770;52.158;5.372;2023-09-08T08:21:13;17.05;;;15.32;;
15340;SDS011;7770;52.158;5.372;2023-09-08T08:23:59;16.48;;;15.07;;
15340;SDS011;7770;52.158;5.372;2023-09-08T08:26:45;16.25;;;14.45;;
15340;SDS011;7770;52.158;5.372;2023-09-08T08:29:31;14.52;;;13.32;;
15340;SDS011;7770;52.158;5.372;2023-09-08T08:32:17;14.93;;;13.45;;
15340;SDS011;7770;52.158;5.372;2023-09-08T08:35:04;15.20;;;14.00;;
15340;SDS011;7770;52.158;5.372;2023-09-08T08:37:50;14.15;;;12.98;;
15340;SDS011;7770;52.158;5.372;2023-09-08T08:40:37;13.98;;;12.70;;
15340;SDS011;7770;52.158;5.372;2023-09-08T08:43:24;13.65;;;12.65;;
15340;SDS011;7770;52.158;5.372;2023-09-08T08:46:11;13.10;;;11.90;;
15340;SDS011;7770;52.158;5.372;2023-09-08T08:48:59;13.13;;;11.95;;
15340;SDS011;7770;52.158;5.372;2023-09-08T08:51:48;13.70;;;12.40;;
15340;SDS011;7770;52.158;5.372;2023-09-08T08:54:40;13.13;;;11.82;;
15340;SDS011;7770;52.158;5.372;2023-09-08T08:57:27;13.35;;;12.27;;
15340;SDS011;7770;52.158;5.372;2023-09-08T09:00:14;13.30;;;12.23;;
15340;SDS011;7770;52.158;5.372;2023-09-08T09:03:04;12.70;;;11.48;;
15340;SDS011;7770;52.158;5.372;2023-09-08T09:05:51;12.63;;;11.52;;
15340;SDS011;7770;52.158;5.372;2023-09-08T09:08:38;12.88;;;11.60;;
15340;SDS011;7770;52.158;5.372;2023-09-08T09:11:25;12.35;;;11.35;;
15340;SDS011;7770;52.158;5.372;2023-09-08T09:14:11;13.45;;;12.15;;
15340;SDS011;7770;52.158;5.372;2023-09-08T09:16:57;12.70;;;11.70;;
15340;SDS011;7770;52.158;5.372;2023-09-08T09:19:43;12.75;;;11.57;;
15340;SDS011;7770;52.158;5.372;2023-09-08T09:22:35;12.77;;;11.48;;
15340;SDS011;7770;52.158;5.372;2023-09-08T09:25:26;13.13;;;11.65;;
15340;SDS011;7770;52.158;5.372;2023-09-08T09:28:14;12.15;;;11.10;;
15340;SDS011;7770;52.158;5.372;2023-09-08T09:31:01;11.27;;;10.50;;
15340;SDS011;7770;52.158;5.372;2023-09-08T09:33:47;12.98;;;11.88;;
15340;SDS011;7770;52.158;5.372;2023-09-08T09:36:33;11.88;;;10.70;;
15340;SDS011;7770;52.158;5.372;2023-09-08T09:39:22;12.45;;;11.27;;
15340;SDS011;7770;52.158;5.372;2023-09-08T09:42:10;11.38;;;10.27;;
15340;SDS011;7770;52.158;5.372;2023-09-08T09:44:56;15.35;;;13.98;;
15340;SDS011;7770;52.158;5.372;2023-09-08T09:47:42;11.45;;;10.55;;
15340;SDS011;7770;52.158;5.372;2023-09-08T09:50:30;12.45;;;11.23;;
15340;SDS011;7770;52.158;5.372;2023-09-08T09:53:26;11.57;;;10.57;;
15340;SDS011;7770;52.158;5.372;2023-09-08T09:56:14;11.50;;;10.40;;
15340;SDS011;7770;52.158;5.372;2023-09-08T09:59:03;10.50;;;9.57;;
15340;SDS011;7770;52.158;5.372;2023-09-08T10:01:49;11.13;;;10.25;;
15340;SDS011;7770;52.158;5.372;2023-09-08T10:04:36;11.93;;;10.73;;
15340;SDS011;7770;52.158;5.372;2023-09-08T10:07:22;12.18;;;10.90;;
15340;SDS011;7770;52.158;5.372;2023-09-08T10:10:10;11.70;;;10.57;;
15340;SDS011;7770;52.158;5.372;2023-09-08T10:12:57;10.45;;;9.55;;
15340;SDS011;7770;52.158;5.372;2023-09-08T10:15:48;11.35;;;10.40;;
15340;SDS011;7770;52.158;5.372;2023-09-08T10:18:36;12.38;;;10.07;;
15340;SDS011;7770;52.158;5.372;2023-09-08T10:21:25;10.88;;;9.88;;
15340;SDS011;7770;52.158;5.372;2023-09-08T10:24:15;12.35;;;11.13;;
15340;SDS011;7770;52.158;5.372;2023-09-08T10:27:10;11.48;;;10.60;;
15340;SDS011;7770;52.158;5.372;2023-09-08T10:29:57;11.88;;;10.38;;
15340;SDS011;7770;52.158;5.372;2023-09-08T10:32:46;11.13;;;9.55;;
15340;SDS011;7770;52.158;5.372;2023-09-08T10:35:35;12.57;;;11.32;;
15340;SDS011;7770;52.158;5.372;2023-09-08T10:44:02;11.30;;;10.40;;
15340;SDS011;7770;52.158;5.372;2023-09-08T10:46:50;11.48;;;10.35;;
15340;SDS011;7770;52.158;5.372;2023-09-08T10:49:36;10.98;;;9.88;;
15340;SDS011;7770;52.158;5.372;2023-09-08T10:52:24;11.82;;;10.73;;
15340;SDS011;7770;52.158;5.372;2023-09-08T10:55:11;11.38;;;10.27;;
15340;SDS011;7770;52.158;5.372;2023-09-08T10:58:00;10.35;;;9.45;;
15340;SDS011;7770;52.158;5.372;2023-09-08T11:00:47;11.45;;;10.32;;
15340;SDS011;7770;52.158;5.372;2023-09-08T11:06:25;10.70;;;9.65;;
15340;SDS011;7770;52.158;5.372;2023-09-08T11:09:15;16.48;;;10.68;;
15340;SDS011;7770;52.158;5.372;2023-09-08T11:12:01;10.60;;;9.52;;
15340;SDS011;7770;52.158;5.372;2023-09-08T11:14:49;12.57;;;9.40;;
15340;SDS011;7770;52.158;5.372;2023-09-08T11:17:35;10.70;;;9.80;;
15340;SDS011;7770;52.158;5.372;2023-09-08T11:20:27;10.48;;;9.52;;
15340;SDS011;7770;52.158;5.372;2023-09-08T11:23:14;11.20;;;10.32;;
15340;SDS011;7770;52.158;5.372;2023-09-08T11:26:00;10.50;;;9.48;;
15340;SDS011;7770;52.158;5.372;2023-09-08T11:28:46;10.80;;;9.75;;
15340;SDS011;7770;52.158;5.372;2023-09-08T11:31:34;12.13;;;10.13;;
15340;SDS011;7770;52.158;5.372;2023-09-08T11:34:21;11.20;;;9.85;;
15340;SDS011;7770;52.158;5.372;2023-09-08T11:39:58;11.20;;;9.40;;
15340;SDS011;7770;52.158;5.372;2023-09-08T11:42:45;10.30;;;9.30;;
15340;SDS011;7770;52.158;5.372;2023-09-08T11:45:35;11.00;;;10.00;;
15340;SDS011;7770;52.158;5.372;2023-09-08T11:48:22;11.32;;;9.40;;
15340;SDS011;7770;52.158;5.372;2023-09-08T11:51:10;10.43;;;9.38;;
15340;SDS011;7770;52.158;5.372;2023-09-08T11:53:56;10.63;;;9.73;;
15340;SDS011;7770;52.158;5.372;2023-09-08T11:56:42;10.20;;;9.32;;
15340;SDS011;7770;52.158;5.372;2023-09-08T11:59:30;10.73;;;9.70;;
15340;SDS011;7770;52.158;5.372;2023-09-08T12:02:18;10.43;;;9.32;;
15340;SDS011;7770;52.158;5.372;2023-09-08T12:05:04;11.27;;;10.18;;
15340;SDS011;7770;52.158;5.372;2023-09-08T12:07:51;11.68;;;10.43;;
15340;SDS011;7770;52.158;5.372;2023-09-08T12:10:44;11.00;;;10.00;;
15340;SDS011;7770;52.158;5.372;2023-09-08T12:13:30;11.50;;;9.82;;
15340;SDS011;7770;52.158;5.372;2023-09-08T12:16:19;11.00;;;9.90;;
15340;SDS011;7770;52.158;5.372;2023-09-08T12:19:07;11.18;;;10.20;;
15340;SDS011;7770;52.158;5.372;2023-09-08T12:22:13;11.73;;;10.63;;
15340;SDS011;7770;52.158;5.372;2023-09-08T12:25:03;12.65;;;10.35;;
15340;SDS011;7770;52.158;5.372;2023-09-08T12:27:54;12.15;;;11.02;;
15340;SDS011;7770;52.158;5.372;2023-09-08T12:30:40;11.32;;;10.23;;
15340;SDS011;7770;52.158;5.372;2023-09-08T12:33:27;10.43;;;9.43;;
15340;SDS011;7770;52.158;5.372;2023-09-08T12:36:16;10.23;;;9.23;;
15340;SDS011;7770;52.158;5.372;2023-09-08T12:39:04;10.48;;;9.55;;
15340;SDS011;7770;52.158;5.372;2023-09-08T12:41:50;10.38;;;9.40;;
15340;SDS011;7770;52.158;5.372;2023-09-08T12:44:36;10.82;;;9.77;;
15340;SDS011;7770;52.158;5.372;2023-09-08T12:47:22;10.68;;;9.50;;
15340;SDS011;7770;52.158;5.372;2023-09-08T12:50:08;11.00;;;9.98;;
15340;SDS011;7770;52.158;5.372;2023-09-08T12:52:55;10.27;;;9.23;;
15340;SDS011;7770;52.158;5.372;2023-09-08T12:55:42;10.25;;;9.20;;
15340;SDS011;7770;52.158;5.372;2023-09-08T12:58:28;9.35;;;8.38;;
15340;SDS011;7770;52.158;5.372;2023-09-08T13:01:14;11.02;;;8.98;;
15340;SDS011;7770;52.158;5.372;2023-09-08T13:04:00;9.63;;;8.65;;
15340;SDS011;7770;52.158;5.372;2023-09-08T13:06:46;10.40;;;9.40;;
15340;SDS011;7770;52.158;5.372;2023-09-08T13:09:32;10.07;;;9.27;;
15340;SDS011;7770;52.158;5.372;2023-09-08T13:12:18;9.93;;;8.50;;
15340;SDS011;7770;52.158;5.372;2023-09-08T13:15:05;10.45;;;8.50;;
15340;SDS011;7770;52.158;5.372;2023-09-08T13:17:51;10.07;;;8.55;;
15340;SDS011;7770;52.158;5.372;2023-09-08T13:20:37;10.20;;;9.27;;
15340;SDS011;7770;52.158;5.372;2023-09-08T13:23:23;10.65;;;9.40;;
15340;SDS011;7770;52.158;5.372;2023-09-08T13:26:09;10.52;;;9.50;;
15340;SDS011;7770;52.158;5.372;2023-09-08T13:28:55;11.60;;;9.27;;
15340;SDS011;7770;52.158;5.372;2023-09-08T13:31:41;11.02;;;8.93;;
15340;SDS011;7770;52.158;5.372;2023-09-08T13:34:27;9.50;;;8.70;;
15340;SDS011;7770;52.158;5.372;2023-09-08T13:37:13;9.07;;;8.35;;
15340;SDS011;7770;52.158;5.372;2023-09-08T13:40:01;9.45;;;8.52;;
15340;SDS011;7770;52.158;5.372;2023-09-08T13:42:49;9.18;;;8.48;;
15340;SDS011;7770;52.158;5.372;2023-09-08T13:45:35;13.15;;;8.98;;
15340;SDS011;7770;52.158;5.372;2023-09-08T13:48:21;10.63;;;8.30;;
15340;SDS011;7770;52.158;5.372;2023-09-08T13:51:07;10.07;;;8.05;;
15340;SDS011;7770;52.158;5.372;2023-09-08T13:53:53;9.35;;;8.48;;
15340;SDS011;7770;52.158;5.372;2023-09-08T13:56:40;9.32;;;7.60;;
15340;SDS011;7770;52.158;5.372;2023-09-08T13:59:27;11.95;;;8.57;;
15340;SDS011;7770;52.158;5.372;2023-09-08T14:02:14;9.95;;;8.95;;
15340;SDS011;7770;52.158;5.372;2023-09-08T14:05:00;9.68;;;8.77;;
15340;SDS011;7770;52.158;5.372;2023-09-08T14:07:46;10.48;;;8.57;;
15340;SDS011;7770;52.158;5.372;2023-09-08T14:10:32;9.43;;;8.50;;
15340;SDS011;7770;52.158;5.372;2023-09-08T14:13:18;11.50;;;8.55;;
15340;SDS011;7770;52.158;5.372;2023-09-08T14:16:04;10.00;;;9.02;;
15340;SDS011;7770;52.158;5.372;2023-09-08T14:18:51;13.60;;;8.57;;
15340;SDS011;7770;52.158;5.372;2023-09-08T14:21:37;11.25;;;8.57;;
15340;SDS011;7770;52.158;5.372;2023-09-08T14:24:24;10.85;;;8.85;;
15340;SDS011;7770;52.158;5.372;2023-09-08T14:27:10;11.30;;;9.00;;
15340;SDS011;7770;52.158;5.372;2023-09-08T14:29:57;11.52;;;10.43;;
15340;SDS011;7770;52.158;5.372;2023-09-08T14:32:43;10.98;;;9.65;;
15340;SDS011;7770;52.158;5.372;2023-09-08T14:35:29;10.50;;;9.50;;
15340;SDS011;7770;52.158;5.372;2023-09-08T14:38:15;10.32;;;9.35;;
15340;SDS011;7770;52.158;5.372;2023-09-08T14:41:02;11.18;;;9.63;;
15340;SDS011;7770;52.158;5.372;2023-09-08T14:43:48;10.73;;;9.90;;
15340;SDS011;7770;52.158;5.372;2023-09-08T14:46:34;11.27;;;10.10;;
15340;SDS011;7770;52.158;5.372;2023-09-08T14:49:20;12.57;;;10.13;;
15340;SDS011;7770;52.158;5.372;2023-09-08T14:52:06;10.75;;;9.70;;
15340;SDS011;7770;52.158;5.372;2023-09-08T14:54:52;11.27;;;10.27;;
15340;SDS011;7770;52.158;5.372;2023-09-08T14:57:38;14.38;;;10.50;;
15340;SDS011;7770;52.158;5.372;2023-09-08T15:00:24;14.73;;;10.48;;
15340;SDS011;7770;52.158;5.372;2023-09-08T15:03:10;10.73;;;9.85;;
15340;SDS011;7770;52.158;5.372;2023-09-08T15:05:56;11.80;;;9.82;;
15340;SDS011;7770;52.158;5.372;2023-09-08T15:08:43;10.88;;;9.88;;
15340;SDS011;7770;52.158;5.372;2023-09-08T15:11:31;11.18;;;10.27;;
15340;SDS011;7770;52.158;5.372;2023-09-08T15:14:17;11.63;;;10.50;;
15340;SDS011;7770;52.158;5.372;2023-09-08T15:17:03;11.80;;;10.57;;
15340;SDS011;7770;52.158;5.372;2023-09-08T15:19:49;11.05;;;10.15;;
15340;SDS011;7770;52.158;5.372;2023-09-08T15:22:35;11.57;;;10.48;;
15340;SDS011;7770;52.158;5.372;2023-09-08T15:25:21;12.55;;;11.15;;
15340;SDS011;7770;52.158;5.372;2023-09-08T15:28:07;11.82;;;10.73;;
15340;SDS011;7770;52.158;5.372;2023-09-08T15:30:53;12.40;;;11.15;;
15340;SDS011;7770;52.158;5.372;2023-09-08T15:33:40;12.63;;;11.07;;
15340;SDS011;7770;52.158;5.372;2023-09-08T15:36:26;10.95;;;9.70;;
15340;SDS011;7770;52.158;5.372;2023-09-08T15:39:11;10.23;;;9.30;;
15340;SDS011;7770;52.158;5.372;2023-09-08T15:41:58;12.02;;;10.80;;
15340;SDS011;7770;52.158;5.372;2023-09-08T15:44:44;11.75;;;10.85;;
15340;SDS011;7770;52.158;5.372;2023-09-08T15:47:30;13.82;;;10.88;;
15340;SDS011;7770;52.158;5.372;2023-09-08T15:50:16;12.05;;;10.95;;
15340;SDS011;7770;52.158;5.372;2023-09-08T15:53:02;11.88;;;10.75;;
15340;SDS011;7770;52.158;5.372;2023-09-08T15:55:48;12.38;;;11.35;;
15340;SDS011;7770;52.158;5.372;2023-09-08T15:58:34;12.10;;;10.90;;
15340;SDS011;7770;52.158;5.372;2023-09-08T16:01:21;12.40;;;11.40;;
15340;SDS011;7770;52.158;5.372;2023-09-08T16:04:07;12.45;;;11.23;;
15340;SDS011;7770;52.158;5.372;2023-09-08T16:06:55;12.45;;;11.07;;
15340;SDS011;7770;52.158;5.372;2023-09-08T16:09:41;11.98;;;10.88;;
15340;SDS011;7770;52.158;5.372;2023-09-08T16:12:27;12.57;;;11.38;;
15340;SDS011;7770;52.158;5.372;2023-09-08T16:15:13;11.57;;;10.60;;
15340;SDS011;7770;52.158;5.372;2023-09-08T16:17:59;17.13;;;11.20;;
15340;SDS011;7770;52.158;5.372;2023-09-08T16:20:45;11.75;;;10.50;;
15340;SDS011;7770;52.158;5.372;2023-09-08T16:23:31;11.63;;;10.63;;
15340;SDS011;7770;52.158;5.372;2023-09-08T16:26:17;12.55;;;11.55;;
15340;SDS011;7770;52.158;5.372;2023-09-08T16:29:03;13.90;;;12.13;;
15340;SDS011;7770;52.158;5.372;2023-09-08T16:31:49;15.23;;;11.48;;
15340;SDS011;7770;52.158;5.372;2023-09-08T16:34:35;12.27;;;11.18;;
15340;SDS011;7770;52.158;5.372;2023-09-08T16:37:21;13.15;;;12.00;;
15340;SDS011;7770;52.158;5.372;2023-09-08T16:40:09;13.50;;;12.05;;
15340;SDS011;7770;52.158;5.372;2023-09-08T16:42:55;13.05;;;11.38;;
15340;SDS011;7770;52.158;5.372;2023-09-08T16:45:41;13.88;;;12.48;;
15340;SDS011;7770;52.158;5.372;2023-09-08T16:48:27;13.07;;;11.77;;